Time;durP1;ratioP1;P1;durP2;ratioP2;P2;SDS_P1;SDS_P2;PMS_P1;PMS_P2;Temp;Humidity;BMP_temperature;BMP_pressure;BME280_temperature;BME280_humidity;BME280_pressure;Samples;Min_cycle;Max_cycle;Signal;HPM_P1;HPM_P2
2021/06/20 09:18:53;;;;;;;12.07;7.70;;;;;;;32.18;40.45;99642.63;5175526;27;20340;-66
2021/06/20 09:21:23;;;;;;;8.63;7.72;;;;;;;32.11;40.20;99633.22;5174737;27;20391;-66
2021/06/20 09:23:49;;;;;;;8.77;7.88;;;;;;;32.24;40.81;99629.47;5174453;27;20507;-66
2021/06/20 09:26:15;;;;;;;10.00;7.13;;;;;;;32.38;39.77;99635.59;5174447;27;20030;-65
2021/06/20 09:28:41;;;;;;;8.35;7.43;;;;;;;32.42;40.15;99632.16;5173923;27;20114;-65
2021/06/20 09:31:06;;;;;;;9.82;7.82;;;;;;;32.59;39.69;99629.34;5155717;27;20024;-65
2021/06/20 09:33:33;;;;;;;8.32;7.22;;;;;;;32.95;39.66;99630.75;5174381;27;20027;-71
2021/06/20 09:35:58;;;;;;;8.73;7.45;;;;;;;33.14;38.62;99632.28;5155748;27;20080;-70
2021/06/20 09:38:27;;;;;;;9.00;7.72;;;;;;;33.17;38.23;99637.09;5138341;27;20072;-70
2021/06/20 09:41:06;;;;;;;7.93;6.70;;;;;;;33.14;37.92;99626.75;5174697;27;20140;-71
2021/06/20 09:43:33;;;;;;;8.00;6.78;;;;;;;33.22;37.72;99629.44;5174387;27;20030;-70
2021/06/20 09:45:58;;;;;;;8.45;6.43;;;;;;;33.32;37.63;99625.47;5156010;27;20169;-70
2021/06/20 09:48:35;;;;;;;7.95;6.20;;;;;;;33.49;36.69;99620.97;5174096;27;20083;-71
2021/06/20 09:51:13;;;;;;;7.60;6.82;;;;;;;33.52;35.70;99632.13;5174324;27;20047;-70
2021/06/20 09:53:39;;;;;;;8.02;6.72;;;;;;;33.47;36.74;99617.75;5174246;27;20088;-68
2021/06/20 09:56:15;;;;;;;9.30;6.15;;;;;;;33.78;36.75;99606.25;5174082;27;20031;-70
2021/06/20 09:58:44;;;;;;;9.50;6.28;;;;;;;34.25;37.13;99605.06;5173726;27;20027;-68
2021/06/20 10:01:13;;;;;;;;;;;;;;;34.59;35.83;99611.31;5174181;27;20134;-68
2021/06/20 10:03:38;;;;;;;8.18;6.82;;;;;;;34.39;34.14;99619.41;5155485;27;20020;-69
2021/06/20 10:06:04;;;;;;;10.02;6.90;;;;;;;34.17;34.74;99606.78;5173706;27;20054;-69
2021/06/20 10:08:32;;;;;;;7.50;6.20;;;;;;;33.93;34.12;99607.56;5173440;27;28329;-67
2021/06/20 10:10:58;;;;;;;8.30;6.38;;;;;;;33.94;34.46;99606.41;5155154;27;20019;-68
2021/06/20 10:13:23;;;;;;;7.65;6.00;;;;;;;33.90;34.35;99613.75;5173241;27;24824;-66
2021/06/20 10:15:48;;;;;;;10.45;6.03;;;;;;;33.88;34.79;99605.00;5171287;27;20031;-68
2021/06/20 10:18:14;;;;;;;6.45;5.85;;;;;;;33.95;33.78;99605.25;5137311;27;37507;-72
2021/06/20 10:20:39;;;;;;;6.85;5.72;;;;;;;33.96;34.16;99606.06;5125041;27;20028;-69
2021/06/20 10:23:15;;;;;;;7.63;6.38;;;;;;;34.07;33.80;99601.72;5139846;27;20065;-68
2021/06/20 10:25:40;;;;;;;8.90;7.03;;;;;;;34.02;33.70;99583.41;5154711;27;20180;-69
2021/06/20 10:28:14;;;;;;;8.55;5.72;;;;;;;34.26;33.96;99595.63;5135030;27;20531;-68
2021/06/20 10:30:43;;;;;;;7.47;5.78;;;;;;;34.33;33.73;99589.56;5157450;27;20908;-68
2021/06/20 10:33:11;;;;;;;7.43;5.90;;;;;;;34.52;33.36;99586.22;5157237;27;20027;-68
2021/06/20 10:35:37;;;;;;;8.45;6.40;;;;;;;34.62;32.60;99587.69;5157563;27;20027;-68
2021/06/20 10:38:02;;;;;;;7.38;6.03;;;;;;;34.65;32.72;99582.28;5139415;27;20492;-68
2021/06/20 10:40:31;;;;;;;10.32;5.05;;;;;;;34.72;31.91;99588.03;5157956;27;20027;-68
2021/06/20 10:42:59;;;;;;;6.43;4.97;;;;;;;34.69;31.71;99583.22;5157764;27;20031;-68
2021/06/20 10:45:28;;;;;;;7.70;5.28;;;;;;;34.91;31.81;99584.69;5138800;27;20062;-69
2021/06/20 10:47:53;;;;;;;6.47;5.35;;;;;;;34.97;31.77;99585.25;5138804;27;20031;-69
2021/06/20 10:50:19;;;;;;;6.15;5.55;;;;;;;35.18;31.09;99587.03;5156732;27;37300;-68
2021/06/20 10:52:57;;;;;;;6.72;6.00;;;;;;;35.10;30.81;99585.22;5156842;27;25385;-69
2021/06/20 10:55:23;;;;;;;7.07;5.60;;;;;;;35.03;30.55;99591.34;5139111;27;20062;-70
2021/06/20 10:57:55;;;;;;;6.10;5.38;;;;;;;35.05;30.78;99584.31;5156225;27;24115;-70
2021/06/20 11:00:31;;;;;;;6.78;4.82;;;;;;;34.89;29.87;99577.88;5139504;27;20823;-70
2021/06/20 11:03:27;;;;;;;6.72;5.00;;;;;;;35.10;30.83;99574.94;5138665;27;20034;-70
2021/06/20 11:05:56;;;;;;;7.53;5.68;;;;;;;35.18;30.54;99573.19;5135144;27;20483;-69
2021/06/20 11:08:25;;;;;;;8.75;5.43;;;;;;;35.42;30.45;99559.28;5156993;27;20031;-70
2021/06/20 11:11:05;;;;;;;7.60;5.72;;;;;;;35.53;29.95;99564.31;5156689;27;20035;-70
2021/06/20 11:13:30;;;;;;;;;;;;;;;35.47;29.71;99554.63;5154886;27;20075;-70
2021/06/20 11:16:06;;;;;;;7.20;4.80;;;;;;;35.53;29.42;99553.22;5137992;27;32412;-71
2021/06/20 15:08:51;;;;;;;7.65;5.47;;;;;;;33.25;30.66;99412.72;5105052;28;20842;-69
2021/06/20 15:11:17;;;;;;;6.55;5.72;;;;;;;33.33;30.41;99414.59;5091538;28;20033;-71
2021/06/20 15:13:42;;;;;;;6.07;5.28;;;;;;;33.28;30.25;99414.78;5091091;28;36485;-70
2021/06/20 15:16:08;;;;;;;6.15;5.22;;;;;;;33.28;29.84;99414.78;5091964;28;20029;-70
2021/06/20 16:45:41;;;;;;;8.35;6.20;;;;;;;32.05;33.37;99333.16;5163198;27;20347;-73
2021/06/20 16:48:07;;;;;;;9.68;6.07;;;;;;;32.09;33.62;99335.25;5119227;27;23322;-72
2021/06/20 16:50:33;;;;;;;8.43;6.32;;;;;;;32.13;33.54;99333.44;5141156;27;20020;-72
2021/06/20 16:52:58;;;;;;;7.13;6.07;;;;;;;32.12;33.46;99326.28;5126667;27;20337;-72
2021/06/20 16:55:24;;;;;;;6.90;5.97;;;;;;;32.09;33.81;99332.47;5152341;27;20023;-72
2021/06/20 16:57:49;;;;;;;6.63;5.93;;;;;;;32.16;33.94;99330.03;5152191;27;20096;-71
2021/06/20 17:00:16;;;;;;;7.78;6.22;;;;;;;32.18;33.94;99330.50;5143995;27;20099;-73
2021/06/20 17:02:41;;;;;;;6.50;5.88;;;;;;;32.16;33.73;99341.03;5144147;27;20791;-73
2021/06/20 17:05:08;;;;;;;7.85;5.88;;;;;;;32.06;33.89;99331.19;5141902;27;20024;-71
2021/06/20 17:07:34;;;;;;;7.60;6.68;;;;;;;32.01;34.22;99337.72;5135616;27;20069;-72
2021/06/20 17:10:00;;;;;;;7.65;6.07;;;;;;;31.94;34.31;99329.16;5129833;27;20846;-72
2021/06/20 17:12:25;;;;;;;15.00;7.60;;;;;;;31.86;34.59;99328.09;5109243;27;20052;-75
2021/06/20 17:14:50;;;;;;;34.95;31.30;;;;;;;31.82;35.01;99331.84;5074958;28;20029;-71
2021/06/20 17:17:16;;;;;;;151.40;136.00;;;;;;;31.80;35.31;99321.16;5068193;28;20029;-73
2021/06/20 17:19:41;;;;;;;11.60;8.18;;;;;;;31.78;35.50;99330.91;5079782;28;34180;-72
2021/06/20 17:22:07;;;;;;;8.85;7.03;;;;;;;31.69;35.12;99329.00;5078011;28;20030;-73
2021/06/20 17:24:32;;;;;;;8.05;6.93;;;;;;;31.62;35.54;99328.75;5079931;28;20040;-73
2021/06/20 17:26:59;;;;;;;8.15;7.25;;;;;;;31.53;35.68;99336.19;5071106;28;20041;-74
2021/06/20 17:29:25;;;;;;;10.00;7.03;;;;;;;31.37;35.81;99334.03;5069714;28;20037;-74
2021/06/20 17:31:50;;;;;;;8.63;6.90;;;;;;;31.26;35.93;99326.44;5051034;28;21064;-73
2021/06/20 17:34:15;;;;;;;8.95;6.63;;;;;;;31.15;36.15;99331.50;5069694;28;20033;-73
2021/06/20 17:36:41;;;;;;;7.72;6.93;;;;;;;31.19;36.89;99332.47;5068666;28;36729;-72
2021/06/20 17:39:07;;;;;;;9.77;6.75;;;;;;;31.27;36.84;99331.63;5068275;28;38593;-72
2021/06/20 17:41:32;;;;;;;9.50;6.45;;;;;;;31.30;36.82;99328.19;5069454;28;20028;-72
2021/06/20 17:43:58;;;;;;;9.18;6.72;;;;;;;31.26;36.46;99331.97;5068888;28;20103;-72
2021/06/20 17:46:23;;;;;;;8.43;6.30;;;;;;;31.20;37.06;99334.09;5069098;28;24456;-72
2021/06/20 17:48:49;;;;;;;83.70;75.50;;;;;;;31.13;36.89;99326.34;5086291;28;20036;-71
2021/06/20 17:51:14;;;;;;;10.05;7.63;;;;;;;31.10;36.98;99327.00;5089216;28;20028;-72
2021/06/20 17:53:39;;;;;;;8.68;6.80;;;;;;;31.08;37.40;99326.53;5089575;28;20025;-72
2021/06/20 17:56:05;;;;;;;8.70;6.38;;;;;;;31.03;37.51;99323.97;5079927;28;20466;-72
2021/06/20 17:58:31;;;;;;;9.20;6.15;;;;;;;30.96;37.66;99316.19;5075605;28;20385;-72
2021/06/20 18:00:56;;;;;;;9.27;6.15;;;;;;;30.83;37.51;99322.69;5075677;28;20029;-73
2021/06/20 18:03:22;;;;;;;7.57;6.50;;;;;;;30.73;37.83;99310.09;5075112;28;20021;-72
2021/06/20 18:05:52;;;;;;;11.95;6.75;;;;;;;30.64;38.15;99307.38;5057920;28;20113;-72
2021/06/20 18:08:17;;;;;;;9.05;6.55;;;;;;;30.60;38.78;99311.91;5054478;28;20029;-71
2021/06/20 18:10:42;;;;;;;8.50;6.57;;;;;;;30.55;38.49;99309.31;5054385;28;20026;-72
2021/06/20 18:13:08;;;;;;;8.57;6.40;;;;;;;30.49;38.60;99305.13;5055227;28;20109;-72
2021/06/20 18:15:33;;;;;;;19.95;7.35;;;;;;;30.44;38.73;99302.53;5054459;28;36088;-72
2021/06/20 18:18:02;;;;;;;9.02;6.60;;;;;;;30.49;39.13;99302.38;5053717;28;20377;-73
2021/06/20 18:20:28;;;;;;;11.32;6.47;;;;;;;30.54;39.44;99299.47;5054967;28;20037;-73
2021/06/20 18:22:53;;;;;;;8.60;6.97;;;;;;;30.49;38.95;99294.16;5071140;28;20034;-71
2021/06/20 18:25:19;;;;;;;72.13;65.45;;;;;;;30.44;39.08;99299.78;5054829;28;20025;-69
2021/06/20 18:27:44;;;;;;;40.70;36.88;;;;;;;30.46;39.56;99303.03;5055439;28;20030;-73
2021/06/20 18:30:10;;;;;;;7.85;7.07;;;;;;;30.50;39.80;99304.81;5074991;28;20036;-72
2021/06/20 18:32:36;;;;;;;9.20;7.30;;;;;;;30.50;39.53;99301.25;5075444;28;20029;-72
2021/06/20 18:35:01;;;;;;;8.82;7.38;;;;;;;30.37;39.05;99303.84;5074739;28;33692;-72
2021/06/20 18:37:27;;;;;;;11.50;7.90;;;;;;;30.29;39.38;99301.91;5071102;28;20489;-74
2021/06/20 18:39:52;;;;;;;10.55;7.55;;;;;;;30.20;39.25;99309.31;5065160;28;20033;-75
2021/06/20 18:42:17;;;;;;;11.25;7.40;;;;;;;30.07;39.71;99313.03;5056109;28;27724;-75
2021/06/20 18:44:43;;;;;;;10.90;8.02;;;;;;;29.99;39.80;99306.41;5052171;28;34905;-74
2021/06/20 18:47:08;;;;;;;39.72;35.45;;;;;;;29.90;40.42;99305.59;5052828;28;32450;-71
2021/06/20 18:49:34;;;;;;;32.45;26.17;;;;;;;29.92;40.42;99309.63;5052953;28;20466;-70
2021/06/20 18:51:59;;;;;;;12.25;10.93;;;;;;;29.91;40.34;99309.94;5052545;28;38911;-74
2021/06/20 18:54:24;;;;;;;9.50;8.48;;;;;;;29.92;40.55;99319.81;5055026;28;20033;-73
2021/06/20 18:56:50;;;;;;;20.63;15.85;;;;;;;29.97;40.66;99320.44;5053954;28;39552;-73
2021/06/20 18:59:15;;;;;;;17.15;9.30;;;;;;;29.89;40.57;99337.72;5053831;28;36468;-72
2021/06/20 19:01:41;;;;;;;12.20;8.68;;;;;;;29.81;41.07;99338.47;5053472;28;35573;-73
2021/06/20 19:04:06;;;;;;;11.70;7.38;;;;;;;29.78;40.92;99341.88;5054829;28;20470;-73
2021/06/20 19:06:33;;;;;;;9.30;6.90;;;;;;;29.71;41.38;99343.13;5053748;28;35080;-73
2021/06/20 19:08:59;;;;;;;10.80;7.07;;;;;;;29.66;41.09;99346.06;5052571;28;20105;-72
2021/06/20 19:11:24;;;;;;;9.88;7.13;;;;;;;29.57;41.53;99349.88;5070235;28;20026;-75
2021/06/20 19:13:50;;;;;;;11.73;7.60;;;;;;;29.46;41.36;99352.13;5069802;28;20040;-72
2021/06/20 19:16:15;;;;;;;11.18;8.13;;;;;;;29.34;41.48;99360.94;5070041;28;20036;-72
2021/06/20 19:18:41;;;;;;;15.90;8.45;;;;;;;29.22;41.40;99364.25;5070552;28;20481;-73
2021/06/20 19:21:06;;;;;;;11.65;7.55;;;;;;;29.14;41.88;99373.22;5052879;28;20096;-73
2021/06/20 19:23:31;;;;;;;11.70;8.70;;;;;;;29.05;41.66;99375.94;5052297;28;20033;-72
2021/06/20 19:25:59;;;;;;;36.22;27.23;;;;;;;28.96;42.00;99378.59;5051979;28;20022;-72
2021/06/20 19:28:24;;;;;;;58.08;44.10;;;;;;;28.88;42.01;99384.84;5052153;28;20034;-72
2021/06/20 19:30:50;;;;;;;78.50;59.28;;;;;;;28.79;41.77;99378.53;5051839;28;30261;-72
2021/06/20 19:33:15;;;;;;;112.28;92.15;;;;;;;28.68;42.40;99378.75;5052312;28;20060;-73
2021/06/20 19:35:43;;;;;;;84.50;63.17;;;;;;;28.61;42.06;99378.34;5052169;28;36933;-74
2021/06/20 19:38:09;;;;;;;55.88;39.10;;;;;;;28.54;42.40;99386.19;5053502;28;20046;-73
2021/06/20 19:40:34;;;;;;;30.60;20.42;;;;;;;28.43;41.98;99390.28;5052388;28;20021;-74
2021/06/20 19:43:00;;;;;;;30.30;21.33;;;;;;;28.34;42.14;99391.03;5052038;28;37563;-73
2021/06/20 19:45:27;;;;;;;27.15;18.42;;;;;;;28.24;42.71;99385.78;5058968;28;20052;-74
2021/06/20 19:47:52;;;;;;;39.30;24.38;;;;;;;28.14;42.59;99391.47;5053755;28;20060;-74
2021/06/20 19:50:18;;;;;;;54.72;34.25;;;;;;;28.07;42.75;99391.88;5053363;28;20055;-74
2021/06/20 19:52:43;;;;;;;38.67;18.73;;;;;;;28.05;42.95;99377.72;5054094;28;20398;-76
2021/06/20 19:55:09;;;;;;;42.80;26.75;;;;;;;28.00;43.04;99386.81;5052324;28;20502;-75
2021/06/20 19:57:36;;;;;;;25.88;14.32;;;;;;;27.95;42.96;99391.56;5053408;28;20022;-74
2021/06/20 20:00:04;;;;;;;20.58;12.13;;;;;;;27.87;43.22;99393.09;5053510;28;20021;-75
2021/06/20 20:02:30;;;;;;;20.10;10.10;;;;;;;27.81;43.03;99388.84;5068539;28;20445;-75
2021/06/20 20:04:55;;;;;;;10.77;7.97;;;;;;;27.75;43.33;99396.38;5053362;28;27413;-71
2021/06/20 20:07:21;;;;;;;10.00;6.88;;;;;;;27.69;43.35;99403.88;5054120;28;20040;-75
2021/06/20 20:09:46;;;;;;;13.65;7.38;;;;;;;27.66;43.42;99409.91;5053843;28;20040;-73
2021/06/20 20:12:11;;;;;;;15.15;8.95;;;;;;;27.63;43.67;99420.69;5053095;28;30939;-73
2021/06/20 20:14:37;;;;;;;6.95;6.13;;;;;;;27.58;43.64;99412.56;5052494;28;38682;-76
2021/06/20 20:17:02;;;;;;;11.05;6.40;;;;;;;27.50;43.74;99422.28;5053153;28;26355;-73
2021/06/20 20:19:28;;;;;;;7.03;6.25;;;;;;;27.42;43.93;99412.03;5053324;28;20084;-73
2021/06/20 20:21:53;;;;;;;27.25;24.70;;;;;;;27.41;44.04;99415.91;5054577;28;20041;-74
2021/06/20 20:24:19;;;;;;;67.15;60.08;;;;;;;27.37;44.30;99407.47;5062846;28;20473;-74
2021/06/20 20:26:44;;;;;;;10.65;6.63;;;;;;;27.35;44.33;99410.50;5054915;28;37516;-74
2021/06/20 20:29:09;;;;;;;7.70;6.90;;;;;;;27.30;44.39;99407.03;5052961;28;34354;-72
2021/06/20 20:31:35;;;;;;;8.95;6.38;;;;;;;27.27;44.36;99405.72;5068628;28;31837;-76
2021/06/20 20:34:00;;;;;;;8.52;6.03;;;;;;;27.25;44.61;99416.13;5052642;28;39048;-74
2021/06/20 20:36:26;;;;;;;9.05;5.88;;;;;;;27.22;44.76;99410.47;5053606;28;20030;-74
2021/06/20 20:38:51;;;;;;;6.97;5.97;;;;;;;27.19;44.76;99409.13;5053278;28;20083;-74
2021/06/20 20:41:16;;;;;;;7.18;6.47;;;;;;;27.17;44.47;99408.63;5068192;28;35878;-73
2021/06/20 20:43:42;;;;;;;7.38;6.40;;;;;;;27.06;44.27;99412.63;5052901;28;20457;-75
2021/06/20 20:46:07;;;;;;;8.88;6.40;;;;;;;26.95;44.77;99412.00;5053631;28;20470;-73
2021/06/20 20:48:33;;;;;;;8.63;6.63;;;;;;;26.83;44.84;99420.66;5053228;28;20445;-73
2021/06/20 20:50:58;;;;;;;7.13;6.20;;;;;;;26.73;45.16;99420.81;5053205;28;20033;-73
2021/06/20 20:53:24;;;;;;;8.23;6.30;;;;;;;26.63;45.36;99422.56;5067862;28;38489;-73
2021/06/20 20:55:49;;;;;;;9.43;5.80;;;;;;;26.56;45.42;99427.59;5052879;28;20033;-72
2021/06/20 20:58:15;;;;;;;10.98;6.10;;;;;;;26.48;45.71;99429.06;5067936;28;24213;-74
2021/06/20 21:00:41;;;;;;;12.45;5.78;;;;;;;26.40;45.58;99428.94;5052590;28;29315;-74
2021/06/20 21:03:06;;;;;;;7.68;5.90;;;;;;;26.32;45.87;99427.66;5051214;28;20060;-73
2021/06/20 21:05:32;;;;;;;8.00;6.20;;;;;;;26.26;46.15;99418.72;5073925;28;20496;-70
2021/06/20 21:07:57;;;;;;;10.73;6.13;;;;;;;26.20;45.78;99411.69;5058819;28;20037;-74
2021/06/20 21:10:23;;;;;;;11.38;5.60;;;;;;;26.14;46.31;99410.97;5054736;28;20037;-75
2021/06/20 21:12:48;;;;;;;22.92;19.88;;;;;;;26.10;46.68;99407.19;5053112;28;20034;-70
2021/06/20 21:15:14;;;;;;;36.53;29.50;;;;;;;26.17;46.84;99412.28;5053050;28;20064;-72
2021/06/20 21:17:39;;;;;;;21.55;16.08;;;;;;;26.25;46.72;99416.28;5052894;28;20115;-72
